sensor_id;sensor_type;location;lat;lon;timestamp;P1;durP1;ratioP1;P2;durP2;ratioP2
14681;SDS011;7429;52.498;13.480;2023-12-20T00:00:31;9.93;;;8.93;;
14681;SDS011;7429;52.498;13.480;2023-12-20T00:03:36;11.07;;;10.07;;
14681;SDS011;7429;52.498;13.480;2023-12-20T00:06:43;10.73;;;9.83;;
14681;SDS011;7429;52.498;13.480;2023-12-20T00:09:46;10.37;;;9.37;;
14681;SDS011;7429;52.498;13.480;2023-12-20T00:12:49;11.73;;;10.67;;
14681;SDS011;7429;52.498;13.480;2023-12-20T00:15:54;10.10;;;9.17;;
14681;SDS011;7429;52.498;13.480;2023-12-20T00:18:57;10.60;;;9.53;;
14681;SDS011;7429;52.498;13.480;2023-12-20T00:22:01;10.57;;;9.70;;
14681;SDS011;7429;52.498;13.480;2023-12-20T00:25:06;11.80;;;10.80;;
14681;SDS011;7429;52.498;13.480;2023-12-20T00:28:10;10.27;;;9.37;;
14681;SDS011;7429;52.498;13.480;2023-12-20T00:31:15;9.57;;;8.73;;
14681;SDS011;7429;52.498;13.480;2023-12-20T00:34:21;9.67;;;8.77;;
14681;SDS011;7429;52.498;13.480;2023-12-20T00:37:24;10.27;;;9.37;;
14681;SDS011;7429;52.498;13.480;2023-12-20T00:40:27;10.40;;;9.50;;
14681;SDS011;7429;52.498;13.480;2023-12-20T00:43:30;11.00;;;10.00;;
14681;SDS011;7429;52.498;13.480;2023-12-20T00:46:34;10.70;;;9.83;;
14681;SDS011;7429;52.498;13.480;2023-12-20T00:49:37;9.60;;;8.80;;
14681;SDS011;7429;52.498;13.480;2023-12-20T00:52:41;9.07;;;8.37;;
14681;SDS011;7429;52.498;13.480;2023-12-20T00:55:44;10.80;;;9.83;;
14681;SDS011;7429;52.498;13.480;2023-12-20T00:58:47;8.83;;;8.13;;
14681;SDS011;7429;52.498;13.480;2023-12-20T01:01:52;9.33;;;8.63;;
14681;SDS011;7429;52.498;13.480;2023-12-20T01:04:58;9.47;;;8.67;;
14681;SDS011;7429;52.498;13.480;2023-12-20T01:08:01;9.67;;;8.83;;
14681;SDS011;7429;52.498;13.480;2023-12-20T01:11:05;10.50;;;9.57;;
14681;SDS011;7429;52.498;13.480;2023-12-20T01:14:08;9.20;;;8.40;;
14681;SDS011;7429;52.498;13.480;2023-12-20T01:17:13;8.63;;;7.93;;
14681;SDS011;7429;52.498;13.480;2023-12-20T01:20:16;9.13;;;8.10;;
14681;SDS011;7429;52.498;13.480;2023-12-20T01:23:21;9.13;;;8.33;;
14681;SDS011;7429;52.498;13.480;2023-12-20T01:26:24;9.50;;;8.60;;
14681;SDS011;7429;52.498;13.480;2023-12-20T01:29:27;8.63;;;7.93;;
14681;SDS011;7429;52.498;13.480;2023-12-20T01:32:32;9.13;;;8.43;;
14681;SDS011;7429;52.498;13.480;2023-12-20T01:35:35;9.03;;;8.23;;
14681;SDS011;7429;52.498;13.480;2023-12-20T01:38:39;10.13;;;9.23;;
14681;SDS011;7429;52.498;13.480;2023-12-20T01:41:42;9.70;;;8.93;;
14681;SDS011;7429;52.498;13.480;2023-12-20T01:44:45;9.53;;;8.73;;
14681;SDS011;7429;52.498;13.480;2023-12-20T01:47:50;8.93;;;8.13;;
14681;SDS011;7429;52.498;13.480;2023-12-20T01:50:54;9.17;;;8.30;;
14681;SDS011;7429;52.498;13.480;2023-12-20T01:53:58;7.83;;;7.13;;
14681;SDS011;7429;52.498;13.480;2023-12-20T01:57:02;8.57;;;7.80;;
14681;SDS011;7429;52.498;13.480;2023-12-20T02:00:08;8.47;;;7.77;;
14681;SDS011;7429;52.498;13.480;2023-12-20T02:03:14;9.30;;;8.50;;
14681;SDS011;7429;52.498;13.480;2023-12-20T02:06:20;8.53;;;7.80;;
14681;SDS011;7429;52.498;13.480;2023-12-20T02:09:25;8.90;;;8.13;;
14681;SDS011;7429;52.498;13.480;2023-12-20T02:12:30;8.50;;;7.57;;
14681;SDS011;7429;52.498;13.480;2023-12-20T02:15:33;8.13;;;7.43;;
14681;SDS011;7429;52.498;13.480;2023-12-20T02:18:41;8.83;;;8.03;;
14681;SDS011;7429;52.498;13.480;2023-12-20T02:21:46;8.27;;;7.60;;
14681;SDS011;7429;52.498;13.480;2023-12-20T02:24:50;6.07;;;5.57;;
14681;SDS011;7429;52.498;13.480;2023-12-20T02:27:53;7.10;;;6.10;;
14681;SDS011;7429;52.498;13.480;2023-12-20T02:30:59;5.80;;;5.40;;
14681;SDS011;7429;52.498;13.480;2023-12-20T02:34:02;7.07;;;6.57;;
14681;SDS011;7429;52.498;13.480;2023-12-20T02:37:07;6.57;;;6.00;;
14681;SDS011;7429;52.498;13.480;2023-12-20T02:40:10;8.03;;;7.33;;
14681;SDS011;7429;52.498;13.480;2023-12-20T02:43:16;8.03;;;7.30;;
14681;SDS011;7429;52.498;13.480;2023-12-20T02:46:21;7.90;;;7.30;;
14681;SDS011;7429;52.498;13.480;2023-12-20T02:49:25;7.23;;;6.53;;
14681;SDS011;7429;52.498;13.480;2023-12-20T02:52:30;6.67;;;6.13;;
14681;SDS011;7429;52.498;13.480;2023-12-20T02:55:33;7.80;;;7.20;;
14681;SDS011;7429;52.498;13.480;2023-12-20T02:58:39;10.23;;;7.80;;
14681;SDS011;7429;52.498;13.480;2023-12-20T03:01:43;10.47;;;7.73;;
14681;SDS011;7429;52.498;13.480;2023-12-20T03:04:47;12.53;;;7.57;;
14681;SDS011;7429;52.498;13.480;2023-12-20T03:07:52;8.47;;;7.60;;
14681;SDS011;7429;52.498;13.480;2023-12-20T03:10:58;9.07;;;6.87;;
14681;SDS011;7429;52.498;13.480;2023-12-20T03:14:01;11.13;;;7.43;;
14681;SDS011;7429;52.498;13.480;2023-12-20T03:17:05;12.33;;;7.10;;
14681;SDS011;7429;52.498;13.480;2023-12-20T03:20:08;7.93;;;6.80;;
14681;SDS011;7429;52.498;13.480;2023-12-20T03:23:13;8.77;;;6.80;;
14681;SDS011;7429;52.498;13.480;2023-12-20T03:26:36;7.47;;;5.93;;
14681;SDS011;7429;52.498;13.480;2023-12-20T03:29:39;9.70;;;6.40;;
14681;SDS011;7429;52.498;13.480;2023-12-20T03:32:43;10.77;;;9.03;;
14681;SDS011;7429;52.498;13.480;2023-12-20T03:35:46;9.40;;;8.10;;
14681;SDS011;7429;52.498;13.480;2023-12-20T03:38:51;11.77;;;8.10;;
14681;SDS011;7429;52.498;13.480;2023-12-20T03:41:54;11.50;;;7.63;;
14681;SDS011;7429;52.498;13.480;2023-12-20T03:44:57;10.47;;;7.93;;
14681;SDS011;7429;52.498;13.480;2023-12-20T03:48:06;10.13;;;5.30;;
14681;SDS011;7429;52.498;13.480;2023-12-20T03:51:09;8.00;;;5.73;;
14681;SDS011;7429;52.498;13.480;2023-12-20T03:54:14;7.93;;;6.13;;
14681;SDS011;7429;52.498;13.480;2023-12-20T03:57:17;9.77;;;5.67;;
14681;SDS011;7429;52.498;13.480;2023-12-20T04:00:25;8.43;;;5.07;;
14681;SDS011;7429;52.498;13.480;2023-12-20T04:03:28;11.77;;;5.47;;
14681;SDS011;7429;52.498;13.480;2023-12-20T04:06:31;10.90;;;5.43;;
14681;SDS011;7429;52.498;13.480;2023-12-20T04:09:36;11.10;;;8.63;;
14681;SDS011;7429;52.498;13.480;2023-12-20T04:12:39;9.10;;;7.40;;
14681;SDS011;7429;52.498;13.480;2023-12-20T04:15:42;13.83;;;8.40;;
14681;SDS011;7429;52.498;13.480;2023-12-20T04:18:45;9.43;;;7.23;;
14681;SDS011;7429;52.498;13.480;2023-12-20T04:21:48;12.53;;;7.40;;
14681;SDS011;7429;52.498;13.480;2023-12-20T04:24:53;12.57;;;5.53;;
14681;SDS011;7429;52.498;13.480;2023-12-20T04:27:56;8.20;;;4.80;;
14681;SDS011;7429;52.498;13.480;2023-12-20T04:30:59;12.43;;;4.37;;
14681;SDS011;7429;52.498;13.480;2023-12-20T04:34:02;8.57;;;6.70;;
14681;SDS011;7429;52.498;13.480;2023-12-20T04:37:05;17.53;;;5.20;;
14681;SDS011;7429;52.498;13.480;2023-12-20T04:40:10;7.57;;;4.53;;
14681;SDS011;7429;52.498;13.480;2023-12-20T04:43:13;9.43;;;4.73;;
14681;SDS011;7429;52.498;13.480;2023-12-20T04:46:17;8.63;;;4.20;;
14681;SDS011;7429;52.498;13.480;2023-12-20T04:49:23;10.10;;;4.17;;
14681;SDS011;7429;52.498;13.480;2023-12-20T04:52:26;9.77;;;4.20;;
14681;SDS011;7429;52.498;13.480;2023-12-20T04:55:30;13.50;;;4.90;;
14681;SDS011;7429;52.498;13.480;2023-12-20T04:58:33;16.93;;;6.23;;
14681;SDS011;7429;52.498;13.480;2023-12-20T05:01:36;12.00;;;4.13;;
14681;SDS011;7429;52.498;13.480;2023-12-20T05:04:40;8.33;;;4.97;;
14681;SDS011;7429;52.498;13.480;2023-12-20T05:07:43;8.83;;;4.53;;
14681;SDS011;7429;52.498;13.480;2023-12-20T05:10:48;15.93;;;6.63;;
14681;SDS011;7429;52.498;13.480;2023-12-20T05:13:51;9.37;;;4.23;;
14681;SDS011;7429;52.498;13.480;2023-12-20T05:16:54;4.93;;;3.63;;
14681;SDS011;7429;52.498;13.480;2023-12-20T05:19:58;8.37;;;4.17;;
14681;SDS011;7429;52.498;13.480;2023-12-20T05:23:01;23.83;;;4.97;;
14681;SDS011;7429;52.498;13.480;2023-12-20T05:26:08;6.00;;;4.67;;
14681;SDS011;7429;52.498;13.480;2023-12-20T05:29:11;8.53;;;4.03;;
14681;SDS011;7429;52.498;13.480;2023-12-20T05:32:14;11.47;;;4.93;;
14681;SDS011;7429;52.498;13.480;2023-12-20T05:35:18;10.33;;;4.20;;
14681;SDS011;7429;52.498;13.480;2023-12-20T05:38:21;6.90;;;3.50;;
14681;SDS011;7429;52.498;13.480;2023-12-20T05:41:26;8.57;;;4.33;;
14681;SDS011;7429;52.498;13.480;2023-12-20T05:44:29;6.97;;;4.33;;
14681;SDS011;7429;52.498;13.480;2023-12-20T05:47:32;10.47;;;4.37;;
14681;SDS011;7429;52.498;13.480;2023-12-20T05:50:35;10.43;;;3.47;;
14681;SDS011;7429;52.498;13.480;2023-12-20T05:53:40;15.47;;;4.50;;
14681;SDS011;7429;52.498;13.480;2023-12-20T05:56:45;9.20;;;4.10;;
14681;SDS011;7429;52.498;13.480;2023-12-20T05:59:48;9.50;;;3.50;;
14681;SDS011;7429;52.498;13.480;2023-12-20T06:02:51;12.70;;;4.43;;
14681;SDS011;7429;52.498;13.480;2023-12-20T06:05:54;8.43;;;3.77;;
14681;SDS011;7429;52.498;13.480;2023-12-20T06:09:16;13.73;;;4.43;;
14681;SDS011;7429;52.498;13.480;2023-12-20T06:12:22;11.47;;;3.80;;
14681;SDS011;7429;52.498;13.480;2023-12-20T06:15:25;6.13;;;3.73;;
14681;SDS011;7429;52.498;13.480;2023-12-20T06:18:28;14.57;;;4.53;;
14681;SDS011;7429;52.498;13.480;2023-12-20T06:21:34;7.93;;;4.30;;
14681;SDS011;7429;52.498;13.480;2023-12-20T06:24:37;14.13;;;4.00;;
14681;SDS011;7429;52.498;13.480;2023-12-20T06:27:44;18.30;;;4.57;;
14681;SDS011;7429;52.498;13.480;2023-12-20T06:30:47;12.57;;;4.20;;
14681;SDS011;7429;52.498;13.480;2023-12-20T06:33:51;8.93;;;3.73;;
14681;SDS011;7429;52.498;13.480;2023-12-20T06:36:59;13.37;;;4.07;;
14681;SDS011;7429;52.498;13.480;2023-12-20T06:40:02;13.87;;;3.97;;
14681;SDS011;7429;52.498;13.480;2023-12-20T06:43:08;7.40;;;4.03;;
14681;SDS011;7429;52.498;13.480;2023-12-20T06:46:26;8.47;;;3.80;;
14681;SDS011;7429;52.498;13.480;2023-12-20T06:49:29;8.77;;;3.73;;
14681;SDS011;7429;52.498;13.480;2023-12-20T06:52:33;10.07;;;3.90;;
14681;SDS011;7429;52.498;13.480;2023-12-20T06:55:36;10.73;;;4.20;;
14681;SDS011;7429;52.498;13.480;2023-12-20T06:58:41;9.20;;;4.73;;
14681;SDS011;7429;52.498;13.480;2023-12-20T07:01:47;12.73;;;4.67;;
14681;SDS011;7429;52.498;13.480;2023-12-20T07:04:50;6.80;;;4.37;;
14681;SDS011;7429;52.498;13.480;2023-12-20T07:07:54;12.17;;;4.93;;
14681;SDS011;7429;52.498;13.480;2023-12-20T07:10:57;10.53;;;4.10;;
14681;SDS011;7429;52.498;13.480;2023-12-20T07:14:03;12.83;;;4.23;;
14681;SDS011;7429;52.498;13.480;2023-12-20T07:17:10;11.73;;;4.40;;
14681;SDS011;7429;52.498;13.480;2023-12-20T07:20:15;11.47;;;5.63;;
14681;SDS011;7429;52.498;13.480;2023-12-20T07:23:20;15.20;;;4.40;;
14681;SDS011;7429;52.498;13.480;2023-12-20T07:26:23;9.03;;;4.53;;
14681;SDS011;7429;52.498;13.480;2023-12-20T07:29:28;9.90;;;4.47;;
14681;SDS011;7429;52.498;13.480;2023-12-20T07:32:34;7.90;;;4.80;;
14681;SDS011;7429;52.498;13.480;2023-12-20T07:35:37;12.37;;;4.43;;
14681;SDS011;7429;52.498;13.480;2023-12-20T07:38:40;10.80;;;4.77;;
14681;SDS011;7429;52.498;13.480;2023-12-20T07:41:45;10.10;;;5.00;;
14681;SDS011;7429;52.498;13.480;2023-12-20T07:44:49;9.23;;;4.20;;
14681;SDS011;7429;52.498;13.480;2023-12-20T07:47:52;11.37;;;4.30;;
14681;SDS011;7429;52.498;13.480;2023-12-20T07:50:56;10.83;;;4.43;;
14681;SDS011;7429;52.498;13.480;2023-12-20T07:53:59;11.67;;;4.50;;
14681;SDS011;7429;52.498;13.480;2023-12-20T07:57:02;11.20;;;4.67;;
14681;SDS011;7429;52.498;13.480;2023-12-20T08:00:07;15.37;;;4.27;;
14681;SDS011;7429;52.498;13.480;2023-12-20T08:03:12;7.80;;;4.60;;
14681;SDS011;7429;52.498;13.480;2023-12-20T08:06:16;8.83;;;4.63;;
14681;SDS011;7429;52.498;13.480;2023-12-20T08:09:22;10.80;;;4.67;;
14681;SDS011;7429;52.498;13.480;2023-12-20T08:12:25;13.67;;;4.23;;
14681;SDS011;7429;52.498;13.480;2023-12-20T08:15:30;8.73;;;4.27;;
14681;SDS011;7429;52.498;13.480;2023-12-20T08:18:33;11.30;;;4.10;;
14681;SDS011;7429;52.498;13.480;2023-12-20T08:21:37;12.47;;;4.67;;
14681;SDS011;7429;52.498;13.480;2023-12-20T08:24:40;9.20;;;5.50;;
14681;SDS011;7429;52.498;13.480;2023-12-20T08:27:43;7.23;;;4.93;;
14681;SDS011;7429;52.498;13.480;2023-12-20T08:30:48;9.83;;;5.30;;
14681;SDS011;7429;52.498;13.480;2023-12-20T08:33:56;11.43;;;4.87;;
14681;SDS011;7429;52.498;13.480;2023-12-20T08:36:59;11.73;;;7.03;;
14681;SDS011;7429;52.498;13.480;2023-12-20T08:40:02;7.97;;;7.17;;
14681;SDS011;7429;52.498;13.480;2023-12-20T08:43:07;12.80;;;8.70;;
14681;SDS011;7429;52.498;13.480;2023-12-20T08:46:11;9.93;;;4.77;;
14681;SDS011;7429;52.498;13.480;2023-12-20T08:49:21;9.90;;;4.37;;
14681;SDS011;7429;52.498;13.480;2023-12-20T08:52:28;11.13;;;4.50;;
14681;SDS011;7429;52.498;13.480;2023-12-20T08:55:32;7.23;;;6.33;;
14681;SDS011;7429;52.498;13.480;2023-12-20T08:58:35;13.83;;;5.60;;
14681;SDS011;7429;52.498;13.480;2023-12-20T09:01:39;13.00;;;5.20;;
14681;SDS011;7429;52.498;13.480;2023-12-20T09:04:42;10.03;;;4.67;;
14681;SDS011;7429;52.498;13.480;2023-12-20T09:07:46;13.47;;;4.73;;
14681;SDS011;7429;52.498;13.480;2023-12-20T09:10:52;9.83;;;4.67;;
14681;SDS011;7429;52.498;13.480;2023-12-20T09:13:55;13.40;;;4.60;;
14681;SDS011;7429;52.498;13.480;2023-12-20T09:17:00;9.63;;;4.63;;
14681;SDS011;7429;52.498;13.480;2023-12-20T09:20:05;9.30;;;4.60;;
14681;SDS011;7429;52.498;13.480;2023-12-20T09:23:10;8.57;;;4.17;;
14681;SDS011;7429;52.498;13.480;2023-12-20T09:26:13;12.53;;;4.50;;
14681;SDS011;7429;52.498;13.480;2023-12-20T09:29:16;5.57;;;3.53;;
14681;SDS011;7429;52.498;13.480;2023-12-20T09:32:21;9.70;;;4.07;;
14681;SDS011;7429;52.498;13.480;2023-12-20T09:35:29;8.57;;;3.90;;
14681;SDS011;7429;52.498;13.480;2023-12-20T09:38:33;14.27;;;4.33;;
14681;SDS011;7429;52.498;13.480;2023-12-20T09:41:43;9.37;;;4.10;;
14681;SDS011;7429;52.498;13.480;2023-12-20T09:44:50;5.93;;;4.30;;
14681;SDS011;7429;52.498;13.480;2023-12-20T09:47:55;7.47;;;3.50;;
14681;SDS011;7429;52.498;13.480;2023-12-20T09:51:04;4.37;;;3.80;;
14681;SDS011;7429;52.498;13.480;2023-12-20T09:54:07;5.23;;;4.07;;
14681;SDS011;7429;52.498;13.480;2023-12-20T09:57:10;8.93;;;4.40;;
14681;SDS011;7429;52.498;13.480;2023-12-20T10:00:13;14.20;;;4.23;;
14681;SDS011;7429;52.498;13.480;2023-12-20T10:03:25;10.87;;;4.80;;
14681;SDS011;7429;52.498;13.480;2023-12-20T10:06:28;13.77;;;4.93;;
14681;SDS011;7429;52.498;13.480;2023-12-20T10:09:32;10.13;;;4.40;;
14681;SDS011;7429;52.498;13.480;2023-12-20T10:12:35;9.03;;;3.90;;
14681;SDS011;7429;52.498;13.480;2023-12-20T10:15:40;12.17;;;5.10;;
14681;SDS011;7429;52.498;13.480;2023-12-20T10:18:46;18.37;;;5.27;;
14681;SDS011;7429;52.498;13.480;2023-12-20T10:21:49;9.17;;;7.43;;
14681;SDS011;7429;52.498;13.480;2023-12-20T10:24:53;13.07;;;8.33;;
14681;SDS011;7429;52.498;13.480;2023-12-20T10:28:09;10.03;;;5.70;;
14681;SDS011;7429;52.498;13.480;2023-12-20T10:31:26;11.80;;;7.70;;
14681;SDS011;7429;52.498;13.480;2023-12-20T10:34:34;14.07;;;7.90;;
14681;SDS011;7429;52.498;13.480;2023-12-20T10:37:37;14.93;;;7.93;;
14681;SDS011;7429;52.498;13.480;2023-12-20T10:40:41;13.30;;;6.83;;
14681;SDS011;7429;52.498;13.480;2023-12-20T10:43:47;14.67;;;4.77;;
14681;SDS011;7429;52.498;13.480;2023-12-20T10:46:50;12.43;;;4.93;;
14681;SDS011;7429;52.498;13.480;2023-12-20T10:50:00;12.60;;;4.33;;
14681;SDS011;7429;52.498;13.480;2023-12-20T10:53:08;12.37;;;4.27;;
14681;SDS011;7429;52.498;13.480;2023-12-20T10:56:15;8.30;;;4.67;;
14681;SDS011;7429;52.498;13.480;2023-12-20T10:59:22;10.23;;;6.53;;
14681;SDS011;7429;52.498;13.480;2023-12-20T11:02:32;12.53;;;7.60;;
14681;SDS011;7429;52.498;13.480;2023-12-20T11:05:41;11.80;;;10.70;;
14681;SDS011;7429;52.498;13.480;2023-12-20T11:08:56;13.77;;;5.97;;
14681;SDS011;7429;52.498;13.480;2023-12-20T11:12:13;16.30;;;7.07;;
14681;SDS011;7429;52.498;13.480;2023-12-20T11:15:29;15.47;;;7.07;;
14681;SDS011;7429;52.498;13.480;2023-12-20T11:18:32;11.20;;;5.97;;
14681;SDS011;7429;52.498;13.480;2023-12-20T11:21:37;14.13;;;5.30;;
14681;SDS011;7429;52.498;13.480;2023-12-20T11:24:44;17.57;;;4.97;;
14681;SDS011;7429;52.498;13.480;2023-12-20T11:31:12;10.63;;;5.90;;
14681;SDS011;7429;52.498;13.480;2023-12-20T11:34:20;12.43;;;4.73;;
14681;SDS011;7429;52.498;13.480;2023-12-20T11:37:33;11.03;;;5.87;;
14681;SDS011;7429;52.498;13.480;2023-12-20T11:40:39;10.33;;;6.47;;
14681;SDS011;7429;52.498;13.480;2023-12-20T11:43:45;7.20;;;4.33;;
14681;SDS011;7429;52.498;13.480;2023-12-20T11:46:49;9.23;;;4.93;;
14681;SDS011;7429;52.498;13.480;2023-12-20T11:49:52;11.10;;;5.80;;
14681;SDS011;7429;52.498;13.480;2023-12-20T11:52:59;17.50;;;8.37;;
14681;SDS011;7429;52.498;13.480;2023-12-20T11:56:02;13.47;;;4.70;;
14681;SDS011;7429;52.498;13.480;2023-12-20T11:59:07;12.70;;;7.83;;
14681;SDS011;7429;52.498;13.480;2023-12-20T12:02:23;10.50;;;6.27;;
14681;SDS011;7429;52.498;13.480;2023-12-20T12:05:27;15.40;;;6.97;;
14681;SDS011;7429;52.498;13.480;2023-12-20T12:08:32;13.87;;;6.90;;
14681;SDS011;7429;52.498;13.480;2023-12-20T12:11:42;14.10;;;5.43;;
14681;SDS011;7429;52.498;13.480;2023-12-20T12:14:49;9.97;;;6.27;;
14681;SDS011;7429;52.498;13.480;2023-12-20T12:17:53;15.10;;;7.27;;
14681;SDS011;7429;52.498;13.480;2023-12-20T12:20:59;11.83;;;7.43;;
14681;SDS011;7429;52.498;13.480;2023-12-20T12:24:14;13.97;;;9.83;;
14681;SDS011;7429;52.498;13.480;2023-12-20T12:27:17;8.13;;;5.47;;
14681;SDS011;7429;52.498;13.480;2023-12-20T12:30:23;15.17;;;8.07;;
14681;SDS011;7429;52.498;13.480;2023-12-20T12:33:30;8.07;;;5.03;;
14681;SDS011;7429;52.498;13.480;2023-12-20T12:36:34;9.10;;;6.47;;
14681;SDS011;7429;52.498;13.480;2023-12-20T12:39:40;8.77;;;5.00;;
14681;SDS011;7429;52.498;13.480;2023-12-20T12:42:46;6.97;;;5.43;;
14681;SDS011;7429;52.498;13.480;2023-12-20T12:45:56;10.10;;;4.50;;
14681;SDS011;7429;52.498;13.480;2023-12-20T12:48:59;12.47;;;5.57;;
14681;SDS011;7429;52.498;13.480;2023-12-20T12:52:03;9.07;;;5.27;;
14681;SDS011;7429;52.498;13.480;2023-12-20T12:55:08;11.27;;;5.07;;
14681;SDS011;7429;52.498;13.480;2023-12-20T12:58:11;10.67;;;4.73;;
14681;SDS011;7429;52.498;13.480;2023-12-20T13:01:14;8.10;;;4.00;;
14681;SDS011;7429;52.498;13.480;2023-12-20T13:04:18;9.23;;;4.93;;
14681;SDS011;7429;52.498;13.480;2023-12-20T13:07:23;13.23;;;5.50;;
14681;SDS011;7429;52.498;13.480;2023-12-20T13:10:28;6.30;;;4.07;;
14681;SDS011;7429;52.498;13.480;2023-12-20T13:13:31;11.00;;;5.23;;
14681;SDS011;7429;52.498;13.480;2023-12-20T13:16:34;10.03;;;6.13;;
14681;SDS011;7429;52.498;13.480;2023-12-20T13:19:40;11.60;;;6.50;;
14681;SDS011;7429;52.498;13.480;2023-12-20T13:22:45;12.03;;;6.60;;
14681;SDS011;7429;52.498;13.480;2023-12-20T13:25:49;12.83;;;6.50;;
14681;SDS011;7429;52.498;13.480;2023-12-20T13:28:53;16.27;;;9.20;;
14681;SDS011;7429;52.498;13.480;2023-12-20T13:31:56;11.30;;;8.33;;
14681;SDS011;7429;52.498;13.480;2023-12-20T13:35:00;5.77;;;5.47;;
14681;SDS011;7429;52.498;13.480;2023-12-20T13:38:08;4.50;;;3.87;;
14681;SDS011;7429;52.498;13.480;2023-12-20T13:41:12;3.53;;;3.27;;
14681;SDS011;7429;52.498;13.480;2023-12-20T13:44:15;7.53;;;4.57;;
14681;SDS011;7429;52.498;13.480;2023-12-20T13:47:18;4.10;;;3.80;;
14681;SDS011;7429;52.498;13.480;2023-12-20T13:50:25;4.83;;;3.93;;
14681;SDS011;7429;52.498;13.480;2023-12-20T13:53:29;5.23;;;4.73;;
14681;SDS011;7429;52.498;13.480;2023-12-20T13:56:34;3.63;;;3.33;;
14681;SDS011;7429;52.498;13.480;2023-12-20T13:59:53;3.50;;;3.17;;
14681;SDS011;7429;52.498;13.480;2023-12-20T14:02:58;7.00;;;3.67;;
14681;SDS011;7429;52.498;13.480;2023-12-20T14:06:01;6.83;;;3.20;;
14681;SDS011;7429;52.498;13.480;2023-12-20T14:09:05;5.53;;;2.83;;
14681;SDS011;7429;52.498;13.480;2023-12-20T14:12:10;6.27;;;3.73;;
14681;SDS011;7429;52.498;13.480;2023-12-20T14:15:13;3.70;;;3.10;;
14681;SDS011;7429;52.498;13.480;2023-12-20T14:18:18;3.87;;;3.20;;
14681;SDS011;7429;52.498;13.480;2023-12-20T14:21:21;4.30;;;3.50;;
14681;SDS011;7429;52.498;13.480;2023-12-20T14:24:25;3.47;;;3.17;;
14681;SDS011;7429;52.498;13.480;2023-12-20T14:27:29;4.27;;;3.00;;
14681;SDS011;7429;52.498;13.480;2023-12-20T14:30:34;3.50;;;3.23;;
14681;SDS011;7429;52.498;13.480;2023-12-20T14:33:39;2.87;;;2.67;;
14681;SDS011;7429;52.498;13.480;2023-12-20T14:36:43;2.70;;;2.50;;
14681;SDS011;7429;52.498;13.480;2023-12-20T14:39:46;3.03;;;2.83;;
14681;SDS011;7429;52.498;13.480;2023-12-20T14:42:53;2.90;;;2.70;;
14681;SDS011;7429;52.498;13.480;2023-12-20T14:45:59;3.33;;;2.30;;
14681;SDS011;7429;52.498;13.480;2023-12-20T14:49:03;2.73;;;2.53;;
14681;SDS011;7429;52.498;13.480;2023-12-20T14:52:07;3.20;;;2.67;;
14681;SDS011;7429;52.498;13.480;2023-12-20T14:55:13;4.57;;;3.40;;
14681;SDS011;7429;52.498;13.480;2023-12-20T14:58:18;3.17;;;2.77;;
14681;SDS011;7429;52.498;13.480;2023-12-20T15:01:26;4.33;;;3.13;;
14681;SDS011;7429;52.498;13.480;2023-12-20T15:04:36;3.17;;;2.87;;
14681;SDS011;7429;52.498;13.480;2023-12-20T15:07:40;2.60;;;2.50;;
14681;SDS011;7429;52.498;13.480;2023-12-20T15:11:16;4.20;;;3.10;;
14681;SDS011;7429;52.498;13.480;2023-12-20T15:14:21;3.40;;;3.10;;
14681;SDS011;7429;52.498;13.480;2023-12-20T15:17:26;6.57;;;3.17;;
14681;SDS011;7429;52.498;13.480;2023-12-20T15:20:29;4.23;;;3.13;;
14681;SDS011;7429;52.498;13.480;2023-12-20T15:23:34;5.30;;;3.30;;
14681;SDS011;7429;52.498;13.480;2023-12-20T15:26:37;4.20;;;3.10;;
14681;SDS011;7429;52.498;13.480;2023-12-20T15:29:42;3.27;;;3.07;;
14681;SDS011;7429;52.498;13.480;2023-12-20T15:32:46;5.07;;;3.83;;
14681;SDS011;7429;52.498;13.480;2023-12-20T15:35:50;5.27;;;3.47;;
14681;SDS011;7429;52.498;13.480;2023-12-20T15:38:55;6.07;;;3.50;;
14681;SDS011;7429;52.498;13.480;2023-12-20T15:41:58;6.90;;;3.37;;
14681;SDS011;7429;52.498;13.480;2023-12-20T15:45:02;5.60;;;3.30;;
14681;SDS011;7429;52.498;13.480;2023-12-20T15:48:06;4.50;;;2.90;;
14681;SDS011;7429;52.498;13.480;2023-12-20T15:51:13;7.37;;;3.67;;
14681;SDS011;7429;52.498;13.480;2023-12-20T15:54:17;6.93;;;3.43;;
14681;SDS011;7429;52.498;13.480;2023-12-20T15:57:20;4.03;;;3.30;;
14681;SDS011;7429;52.498;13.480;2023-12-20T16:00:26;5.27;;;2.87;;
14681;SDS011;7429;52.498;13.480;2023-12-20T16:03:31;5.90;;;3.30;;
14681;SDS011;7429;52.498;13.480;2023-12-20T16:06:41;10.93;;;3.53;;
14681;SDS011;7429;52.498;13.480;2023-12-20T16:09:45;3.63;;;2.93;;
14681;SDS011;7429;52.498;13.480;2023-12-20T16:12:48;7.00;;;3.77;;
14681;SDS011;7429;52.498;13.480;2023-12-20T16:15:54;4.37;;;3.97;;
14681;SDS011;7429;52.498;13.480;2023-12-20T16:18:57;6.50;;;3.50;;
14681;SDS011;7429;52.498;13.480;2023-12-20T16:22:01;9.23;;;3.83;;
14681;SDS011;7429;52.498;13.480;2023-12-20T16:25:07;6.07;;;3.57;;
14681;SDS011;7429;52.498;13.480;2023-12-20T16:28:12;6.10;;;3.90;;
14681;SDS011;7429;52.498;13.480;2023-12-20T16:31:16;5.50;;;3.60;;
14681;SDS011;7429;52.498;13.480;2023-12-20T16:34:20;10.40;;;4.10;;
14681;SDS011;7429;52.498;13.480;2023-12-20T16:37:23;8.23;;;3.87;;
14681;SDS011;7429;52.498;13.480;2023-12-20T16:40:28;6.00;;;4.30;;
14681;SDS011;7429;52.498;13.480;2023-12-20T16:43:31;6.23;;;3.63;;
14681;SDS011;7429;52.498;13.480;2023-12-20T16:46:36;7.03;;;3.40;;
14681;SDS011;7429;52.498;13.480;2023-12-20T16:49:39;6.90;;;4.60;;
14681;SDS011;7429;52.498;13.480;2023-12-20T16:52:43;6.40;;;3.47;;
14681;SDS011;7429;52.498;13.480;2023-12-20T16:55:48;9.23;;;3.63;;
14681;SDS011;7429;52.498;13.480;2023-12-20T16:58:52;8.77;;;4.30;;
14681;SDS011;7429;52.498;13.480;2023-12-20T17:01:56;7.73;;;3.67;;
14681;SDS011;7429;52.498;13.480;2023-12-20T17:05:03;7.87;;;3.60;;
14681;SDS011;7429;52.498;13.480;2023-12-20T17:08:07;11.47;;;4.53;;
14681;SDS011;7429;52.498;13.480;2023-12-20T17:11:10;10.07;;;4.40;;
14681;SDS011;7429;52.498;13.480;2023-12-20T17:14:13;6.70;;;4.13;;
14681;SDS011;7429;52.498;13.480;2023-12-20T17:17:18;7.33;;;4.20;;
14681;SDS011;7429;52.498;13.480;2023-12-20T17:20:21;9.33;;;3.93;;
14681;SDS011;7429;52.498;13.480;2023-12-20T17:23:26;9.40;;;4.00;;
14681;SDS011;7429;52.498;13.480;2023-12-20T17:26:29;7.50;;;4.70;;
14681;SDS011;7429;52.498;13.480;2023-12-20T17:29:35;9.67;;;4.53;;
14681;SDS011;7429;52.498;13.480;2023-12-20T17:32:40;8.57;;;4.17;;
14681;SDS011;7429;52.498;13.480;2023-12-20T17:35:50;13.70;;;4.43;;
14681;SDS011;7429;52.498;13.480;2023-12-20T17:38:58;15.63;;;5.13;;
14681;SDS011;7429;52.498;13.480;2023-12-20T17:42:04;16.00;;;4.97;;
14681;SDS011;7429;52.498;13.480;2023-12-20T17:45:11;11.50;;;4.93;;
14681;SDS011;7429;52.498;13.480;2023-12-20T17:48:15;16.63;;;7.43;;
14681;SDS011;7429;52.498;13.480;2023-12-20T17:51:18;11.50;;;6.40;;
14681;SDS011;7429;52.498;13.480;2023-12-20T17:54:25;12.17;;;4.60;;
14681;SDS011;7429;52.498;13.480;2023-12-20T17:57:31;7.97;;;4.10;;
14681;SDS011;7429;52.498;13.480;2023-12-20T18:00:36;8.27;;;4.20;;
14681;SDS011;7429;52.498;13.480;2023-12-20T18:03:51;14.87;;;6.37;;
14681;SDS011;7429;52.498;13.480;2023-12-20T18:06:54;7.83;;;4.33;;
14681;SDS011;7429;52.498;13.480;2023-12-20T18:09:58;9.07;;;4.43;;
14681;SDS011;7429;52.498;13.480;2023-12-20T18:13:04;9.70;;;4.30;;
14681;SDS011;7429;52.498;13.480;2023-12-20T18:16:07;8.90;;;4.80;;
14681;SDS011;7429;52.498;13.480;2023-12-20T18:19:15;17.87;;;5.07;;
14681;SDS011;7429;52.498;13.480;2023-12-20T18:22:19;9.10;;;4.57;;
14681;SDS011;7429;52.498;13.480;2023-12-20T18:25:23;12.73;;;5.17;;
14681;SDS011;7429;52.498;13.480;2023-12-20T18:28:31;8.80;;;4.33;;